createdAt,value
2022-10-22T00:02:50.721Z,0.33
2022-10-22T00:07:54.039Z,0.43
2022-10-22T00:12:57.699Z,0.40
2022-10-22T00:18:02.233Z,0.50
2022-10-22T00:23:05.344Z,0.40
2022-10-22T00:28:08.468Z,0.43
2022-10-22T00:33:13.061Z,0.50
2022-10-22T00:38:16.912Z,0.50
2022-10-22T00:43:21.311Z,0.60
2022-10-22T00:48:29.203Z,0.50
2022-10-22T00:53:37.312Z,0.40
2022-10-22T00:58:44.921Z,0.43
2022-10-22T01:03:49.879Z,0.50
2022-10-22T01:09:03.566Z,0.30
2022-10-22T01:14:18.776Z,0.50
2022-10-22T01:19:40.801Z,0.50
2022-10-22T01:24:57.190Z,0.50
2022-10-22T01:30:04.390Z,0.50
2022-10-22T01:35:10.790Z,0.70
2022-10-22T01:40:17.203Z,0.50
2022-10-22T01:45:21.763Z,0.40
2022-10-22T01:50:42.679Z,0.43
2022-10-22T01:55:57.655Z,0.47
2022-10-22T02:01:09.847Z,0.40
2022-10-22T02:06:18.589Z,0.60
2022-10-22T02:11:22.182Z,0.30
2022-10-22T02:16:31.221Z,0.50
2022-10-22T02:21:34.562Z,0.50
2022-10-22T02:26:41.575Z,0.50
2022-10-22T02:31:49.150Z,0.40
2022-10-22T02:36:53.297Z,0.40
2022-10-22T02:41:57.999Z,0.70
2022-10-22T02:47:02.585Z,0.40
2022-10-22T02:52:06.169Z,0.43
2022-10-22T02:57:09.418Z,0.40
2022-10-22T03:02:14.171Z,0.40
2022-10-22T03:07:17.346Z,0.40
2022-10-22T03:12:20.650Z,0.40
2022-10-22T03:17:25.512Z,0.60
2022-10-22T03:22:33.538Z,0.30
2022-10-22T03:27:38.820Z,0.40
2022-10-22T03:32:43.579Z,0.40
2022-10-22T03:37:46.759Z,0.43
2022-10-22T03:42:49.971Z,0.53
2022-10-22T03:47:54.622Z,0.57
2022-10-22T03:52:58.155Z,0.40
2022-10-22T03:58:01.259Z,0.50
2022-10-22T04:03:06.116Z,0.47
2022-10-22T04:08:09.282Z,0.60
2022-10-22T04:13:13.809Z,0.77
2022-10-22T04:18:18.506Z,0.80
2022-10-22T04:23:21.655Z,0.60
2022-10-22T04:28:24.793Z,0.83
2022-10-22T04:33:29.311Z,0.90
2022-10-22T04:38:32.447Z,0.77
2022-10-22T04:43:35.901Z,0.80
2022-10-22T04:48:42.853Z,1.00
2022-10-22T04:53:47.126Z,1.30
2022-10-22T04:58:51.325Z,1.00
2022-10-22T05:03:58.722Z,0.90
2022-10-22T05:09:04.805Z,0.93
2022-10-22T05:14:09.465Z,0.80
2022-10-22T05:19:17.585Z,0.80
2022-10-22T05:24:20.726Z,0.80
2022-10-22T05:29:24.350Z,0.70
2022-10-22T05:34:29.018Z,0.90
2022-10-22T05:39:32.163Z,0.57
2022-10-22T05:44:35.551Z,0.53
2022-10-22T05:49:40.564Z,0.80
2022-10-22T05:54:43.948Z,0.60
2022-10-22T05:59:47.621Z,0.60
2022-10-22T06:04:52.117Z,0.53
2022-10-22T06:09:55.397Z,0.67
2022-10-22T06:14:58.636Z,0.80
2022-10-22T06:25:08.307Z,0.60
2022-10-22T06:30:12.327Z,0.70
2022-10-22T06:35:17.072Z,0.70
2022-10-22T06:40:20.203Z,0.50
2022-10-22T06:45:23.441Z,0.70
2022-10-22T06:50:27.986Z,0.43
2022-10-22T06:55:31.168Z,0.67
2022-10-22T07:00:34.696Z,0.73
2022-10-22T07:05:39.168Z,0.67
2022-10-22T07:10:42.720Z,0.80
2022-10-22T07:15:46.294Z,0.67
2022-10-22T07:20:51.823Z,0.80
2022-10-22T07:30:59.662Z,0.70
2022-10-22T07:36:06.227Z,0.70
2022-10-22T07:41:09.489Z,0.77
2022-10-22T07:46:13.340Z,0.73
2022-10-22T07:51:18.757Z,0.60
2022-10-22T07:56:22.019Z,1.07
2022-10-22T08:01:25.192Z,0.93
2022-10-22T08:06:29.843Z,1.10
2022-10-22T08:11:33.502Z,0.97
2022-10-22T08:16:36.652Z,1.10
2022-10-22T08:21:41.481Z,0.97
2022-10-22T08:26:44.684Z,1.00
2022-10-22T08:31:47.910Z,0.97
2022-10-22T08:36:52.436Z,1.10
2022-10-22T08:42:14.009Z,0.80
2022-10-22T08:47:34.488Z,0.80
2022-10-22T08:52:43.504Z,0.73
2022-10-22T08:57:56.732Z,0.90
2022-10-22T09:03:13.632Z,0.50
2022-10-22T09:08:20.658Z,0.80
2022-10-22T09:13:24.754Z,0.77
2022-10-22T09:18:36.804Z,0.60
2022-10-22T09:23:55.222Z,0.50
2022-10-22T09:29:01.503Z,0.53
2022-10-22T09:34:07.472Z,0.60
2022-10-22T09:39:27.206Z,0.40
2022-10-22T09:44:30.438Z,0.43
2022-10-22T09:49:36.686Z,0.60
2022-10-22T09:54:43.488Z,0.60
2022-10-22T09:59:49.738Z,0.50
2022-10-22T10:04:55.429Z,0.50
2022-10-22T10:10:00.243Z,0.60
2022-10-22T10:15:12.400Z,0.60
2022-10-22T10:20:28.928Z,0.50
2022-10-22T10:25:47.546Z,0.40
2022-10-22T10:30:57.076Z,0.40
2022-10-22T10:36:05.906Z,0.47
2022-10-22T10:41:18.639Z,0.40
2022-10-22T10:46:30.278Z,0.30
2022-10-22T10:51:43.556Z,0.43
2022-10-22T10:56:52.840Z,0.33
2022-10-22T11:02:15.076Z,0.50
2022-10-22T11:07:34.320Z,0.40
2022-10-22T11:12:43.580Z,0.43
2022-10-22T11:17:49.778Z,0.40
2022-10-22T11:23:18.297Z,0.57
2022-10-22T11:28:27.065Z,0.40
2022-10-22T11:33:39.032Z,0.30
2022-10-22T11:38:42.367Z,0.40
2022-10-22T11:44:08.934Z,0.30
2022-10-22T11:49:23.240Z,0.40
2022-10-22T11:54:32.086Z,0.50
2022-10-22T11:59:40.980Z,0.60
2022-10-22T12:04:44.201Z,0.30
2022-10-22T12:14:59.627Z,0.20
2022-10-22T12:20:08.287Z,0.30
2022-10-22T12:25:19.995Z,0.40
2022-10-22T12:30:25.886Z,0.27
2022-10-22T12:35:31.243Z,0.30
2022-10-22T12:40:36.358Z,0.50
2022-10-22T12:45:41.862Z,0.23
2022-10-22T12:50:47.993Z,0.43
2022-10-22T12:55:53.164Z,0.33
2022-10-22T13:01:01.813Z,0.30
2022-10-22T13:06:23.778Z,0.40
2022-10-22T13:11:33.015Z,0.30
2022-10-22T13:16:37.502Z,0.50
2022-10-22T13:21:41.092Z,0.40
2022-10-22T13:26:44.310Z,0.40
2022-10-22T13:31:51.248Z,0.40
2022-10-22T13:36:55.027Z,0.33
2022-10-22T13:41:58.146Z,0.50
2022-10-22T13:47:03.129Z,1.43
2022-10-22T13:52:06.362Z,0.90
2022-10-22T13:57:11.527Z,0.60
2022-10-22T14:02:16.447Z,0.50
2022-10-22T14:07:19.765Z,0.40
2022-10-22T14:12:23.000Z,0.60
2022-10-22T14:17:28.086Z,0.30
2022-10-22T14:22:32.055Z,0.30
2022-10-22T14:27:35.126Z,0.30
2022-10-22T14:32:40.041Z,0.30
2022-10-22T14:37:43.529Z,0.27
2022-10-22T14:42:48.776Z,0.40
2022-10-22T14:47:55.594Z,0.30
2022-10-22T14:52:59.790Z,0.30
2022-10-22T14:58:02.891Z,0.33
2022-10-22T15:03:07.526Z,0.30
2022-10-22T15:08:10.606Z,0.20
2022-10-22T15:13:13.765Z,0.30
2022-10-22T15:18:18.301Z,0.30
2022-10-22T15:23:21.416Z,0.10
2022-10-22T15:28:25.115Z,0.20
2022-10-22T15:33:30.206Z,0.13
2022-10-22T15:38:33.368Z,0.20
2022-10-22T15:43:36.830Z,0.60
2022-10-22T15:48:41.827Z,0.40
2022-10-22T15:53:45.591Z,0.40
2022-10-22T15:58:49.221Z,0.40
2022-10-22T16:04:00.014Z,0.40
2022-10-22T16:09:07.596Z,0.50
2022-10-22T16:14:12.690Z,0.60
2022-10-22T16:19:18.970Z,0.30
2022-10-22T16:24:22.797Z,0.40
2022-10-22T16:29:26.370Z,0.30
2022-10-22T16:34:31.077Z,0.60
2022-10-22T16:39:34.239Z,0.30
2022-10-22T16:44:37.409Z,0.30
2022-10-22T16:49:41.934Z,0.30
2022-10-22T16:54:46.696Z,0.40
2022-10-22T16:59:49.858Z,0.33
2022-10-22T17:04:54.619Z,0.47
2022-10-22T17:09:57.801Z,0.47
2022-10-22T17:15:00.926Z,0.50
2022-10-22T17:20:06.073Z,0.77
2022-10-22T17:25:13.326Z,0.60
2022-10-22T17:30:23.299Z,0.63
2022-10-22T17:35:31.219Z,0.60
2022-10-22T17:40:37.786Z,0.60
2022-10-22T17:45:40.829Z,0.77
2022-10-22T17:50:48.282Z,0.80
2022-10-22T17:56:01.549Z,0.63
2022-10-22T18:01:05.351Z,1.60
2022-10-22T18:06:11.187Z,1.90
2022-10-22T18:11:15.838Z,1.40
2022-10-22T18:16:19.851Z,0.97
2022-10-22T18:21:26.658Z,0.87
2022-10-22T18:26:30.256Z,0.70
2022-10-22T18:31:33.826Z,0.77
2022-10-22T18:36:38.953Z,0.80
2022-10-22T18:41:42.429Z,1.20
2022-10-22T18:46:45.858Z,0.90
2022-10-22T18:51:52.853Z,0.83
2022-10-22T18:56:59.440Z,0.90
2022-10-22T19:02:06.362Z,0.90
2022-10-22T19:07:11.972Z,0.70
2022-10-22T19:12:15.860Z,0.80
2022-10-22T19:17:19.113Z,1.50
2022-10-22T19:22:23.942Z,1.97
2022-10-22T19:27:27.320Z,2.03
2022-10-22T19:32:31.098Z,1.30
2022-10-22T19:37:37.469Z,1.10
2022-10-22T19:42:41.405Z,1.43
2022-10-22T19:47:44.917Z,1.30
2022-10-22T19:52:51.282Z,1.00
2022-10-22T19:57:54.936Z,0.87
2022-10-22T20:02:58.183Z,0.80
2022-10-22T20:08:02.746Z,0.70
2022-10-22T20:13:06.288Z,0.60
2022-10-22T20:18:09.410Z,0.93
2022-10-22T20:23:14.520Z,0.80
2022-10-22T20:28:18.500Z,0.60
2022-10-22T20:33:21.681Z,0.80
2022-10-22T20:38:26.344Z,0.50
2022-10-22T20:43:30.272Z,0.70
2022-10-22T20:48:33.598Z,0.50
2022-10-22T20:53:38.091Z,0.30
2022-10-22T20:58:47.593Z,0.50
2022-10-22T21:03:51.250Z,0.60
2022-10-22T21:08:56.071Z,0.40
2022-10-22T21:13:59.427Z,0.50
2022-10-22T21:19:02.653Z,0.50
2022-10-22T21:24:07.737Z,0.30
2022-10-22T21:29:12.548Z,0.47
2022-10-22T21:34:17.455Z,0.67
2022-10-22T21:39:22.070Z,0.30
2022-10-22T21:44:25.238Z,0.50
2022-10-22T21:49:28.464Z,0.53
2022-10-22T21:54:33.078Z,0.57
2022-10-22T21:59:36.930Z,0.40
2022-10-22T22:04:40.931Z,0.63
2022-10-22T22:09:45.712Z,0.33
2022-10-22T22:14:49.174Z,0.33
2022-10-22T22:19:52.423Z,0.40
2022-10-22T22:24:57.297Z,0.50
2022-10-22T22:30:00.407Z,0.20
2022-10-22T22:35:03.597Z,0.50
2022-10-22T22:40:09.428Z,0.60
2022-10-22T22:45:12.885Z,0.50
2022-10-22T22:50:16.153Z,0.40
2022-10-22T22:55:20.762Z,0.63
2022-10-22T23:00:23.869Z,0.30
2022-10-22T23:05:27.247Z,0.50
2022-10-22T23:10:31.724Z,0.50
2022-10-22T23:15:34.861Z,0.40
2022-10-22T23:20:39.203Z,0.50
2022-10-22T23:25:43.807Z,0.47
2022-10-22T23:30:47.107Z,0.37
2022-10-22T23:35:50.259Z,0.47
2022-10-22T23:40:57.481Z,0.70
2022-10-22T23:46:00.888Z,0.43
2022-10-22T23:51:08.412Z,0.63
2022-10-22T23:56:15.212Z,0.40
